createdAt,value
2022-08-08T00:02:30.455Z,19.79
2022-08-08T00:05:00.803Z,19.82
2022-08-08T00:07:37.979Z,19.80
2022-08-08T00:10:28.386Z,19.77
2022-08-08T00:13:20.889Z,19.81
2022-08-08T00:16:06.315Z,19.79
2022-08-08T00:18:42.036Z,19.83
2022-08-08T00:21:16.349Z,19.78
2022-08-08T00:23:58.021Z,19.77
2022-08-08T00:26:35.600Z,19.78
2022-08-08T00:29:45.702Z,19.73
2022-08-08T00:32:36.540Z,19.71
2022-08-08T00:35:37.722Z,19.74
2022-08-08T00:38:32.175Z,19.72
2022-08-08T00:41:54.613Z,19.73
2022-08-08T00:44:42.197Z,19.71
2022-08-08T00:48:04.971Z,19.71
2022-08-08T00:51:09.608Z,19.68
2022-08-08T00:54:13.252Z,19.67
2022-08-08T00:57:19.702Z,19.74
2022-08-08T01:00:16.126Z,19.78
2022-08-08T01:04:01.734Z,19.69
2022-08-08T01:06:38.048Z,19.63
2022-08-08T01:09:35.390Z,19.56
2022-08-08T01:12:39.347Z,19.56
2022-08-08T01:15:43.751Z,19.48
2022-08-08T01:18:25.405Z,19.43
2022-08-08T01:22:01.878Z,19.42
2022-08-08T01:24:50.744Z,19.27
2022-08-08T01:27:24.237Z,19.22
2022-08-08T01:30:19.338Z,19.15
2022-08-08T01:33:16.345Z,19.12
2022-08-08T01:36:31.433Z,19.20
2022-08-08T01:39:05.102Z,19.16
2022-08-08T01:41:34.312Z,19.19
2022-08-08T01:44:23.893Z,19.19
2022-08-08T01:48:14.823Z,19.16
2022-08-08T01:50:34.949Z,19.16
2022-08-08T01:55:15.593Z,19.15
2022-08-08T01:56:34.494Z,19.09
2022-08-08T01:59:21.634Z,19.07
2022-08-08T02:02:07.421Z,19.04
2022-08-08T02:05:01.394Z,19.01
2022-08-08T02:07:50.031Z,18.96
2022-08-08T02:10:37.099Z,19.00
2022-08-08T02:13:54.809Z,19.00
2022-08-08T02:16:49.191Z,19.02
2022-08-08T02:19:57.769Z,19.02
2022-08-08T02:23:01.914Z,19.01
2022-08-08T02:25:48.414Z,19.01
2022-08-08T02:28:53.215Z,19.06
2022-08-08T02:32:00.984Z,18.99
2022-08-08T02:35:08.023Z,18.93
2022-08-08T02:38:25.236Z,18.93
2022-08-08T02:42:04.206Z,18.89
2022-08-08T02:45:09.639Z,18.88
2022-08-08T02:48:10.239Z,18.92
2022-08-08T02:51:07.091Z,18.94
2022-08-08T02:54:05.940Z,18.98
2022-08-08T02:57:12.268Z,18.96
2022-08-08T03:00:47.023Z,19.00
2022-08-08T03:05:04.715Z,18.99
2022-08-08T03:06:56.132Z,18.96
2022-08-08T03:09:34.804Z,18.99
2022-08-08T03:12:06.013Z,18.99
2022-08-08T03:15:58.853Z,18.97
2022-08-08T03:18:13.589Z,18.92
2022-08-08T03:20:51.622Z,18.90
2022-08-08T03:23:56.681Z,18.91
2022-08-08T03:26:26.263Z,18.89
2022-08-08T03:29:16.842Z,18.87
2022-08-08T03:32:09.134Z,18.90
2022-08-08T03:34:40.049Z,18.92
2022-08-08T03:38:00.137Z,18.91
2022-08-08T03:40:06.855Z,18.92
2022-08-08T03:42:47.803Z,18.92
2022-08-08T03:46:02.929Z,18.91
2022-08-08T03:48:20.747Z,18.91
2022-08-08T03:51:06.430Z,18.96
2022-08-08T03:53:47.415Z,18.93
2022-08-08T03:56:31.901Z,18.89
2022-08-08T03:59:02.747Z,18.88
2022-08-08T04:02:15.794Z,18.93
2022-08-08T04:04:30.486Z,18.93
2022-08-08T04:07:01.541Z,18.96
2022-08-08T04:10:03.177Z,18.99
2022-08-08T04:12:25.619Z,18.99
2022-08-08T04:14:54.125Z,18.97
2022-08-08T04:17:58.361Z,18.96
2022-08-08T04:20:10.753Z,18.97
2022-08-08T04:22:38.079Z,18.96
2022-08-08T04:25:08.211Z,18.97
2022-08-08T04:28:02.759Z,19.01
2022-08-08T04:30:26.626Z,19.08
2022-08-08T04:32:54.706Z,19.11
2022-08-08T04:35:26.002Z,19.04
2022-08-08T04:37:56.551Z,19.12
2022-08-08T04:40:27.686Z,19.12
2022-08-08T04:42:58.073Z,19.10
2022-08-08T04:45:33.510Z,19.13
2022-08-08T04:48:01.851Z,19.21
2022-08-08T04:50:38.595Z,19.20
2022-08-08T04:53:14.299Z,19.21
2022-08-08T04:55:58.449Z,19.26
2022-08-08T04:58:29.983Z,19.30
2022-08-08T05:00:57.339Z,19.30
2022-08-08T05:04:09.363Z,19.40
2022-08-08T05:06:25.723Z,19.49
2022-08-08T05:08:56.338Z,19.65
2022-08-08T05:11:39.692Z,19.85
2022-08-08T05:14:11.971Z,19.89
2022-08-08T05:16:54.507Z,19.98
2022-08-08T05:20:12.763Z,20.05
2022-08-08T05:22:18.707Z,19.99
2022-08-08T05:24:50.487Z,19.99
2022-08-08T05:27:21.579Z,20.04
2022-08-08T05:29:50.335Z,19.98
2022-08-08T05:32:24.699Z,19.96
2022-08-08T05:35:01.596Z,19.88
2022-08-08T05:37:52.048Z,19.82
2022-08-08T05:40:28.087Z,19.77
2022-08-08T05:43:38.555Z,19.83
2022-08-08T05:46:04.032Z,19.95
2022-08-08T05:48:38.002Z,19.98
2022-08-08T05:51:13.536Z,20.13
2022-08-08T05:54:24.582Z,20.29
2022-08-08T05:56:41.965Z,20.41
2022-08-08T05:59:57.676Z,20.52
2022-08-08T06:02:35.134Z,20.56
2022-08-08T06:05:06.741Z,20.70
2022-08-08T06:07:52.247Z,20.77
2022-08-08T06:10:34.690Z,20.83
2022-08-08T06:13:03.206Z,20.94
2022-08-08T06:15:51.297Z,20.96
2022-08-08T06:18:27.396Z,21.09
2022-08-08T06:20:57.612Z,21.19
2022-08-08T06:23:49.072Z,21.25
2022-08-08T06:26:43.521Z,21.44
2022-08-08T06:29:26.598Z,21.59
2022-08-08T06:32:10.646Z,21.72
2022-08-08T06:34:56.524Z,21.75
2022-08-08T06:37:40.012Z,21.83
2022-08-08T06:40:16.394Z,21.80
2022-08-08T06:43:04.867Z,21.70
2022-08-08T06:45:39.711Z,21.63
2022-08-08T06:48:10.125Z,21.60
2022-08-08T06:50:39.440Z,21.55
2022-08-08T06:53:17.286Z,21.59
2022-08-08T06:56:02.139Z,21.51
2022-08-08T06:58:33.307Z,21.41
2022-08-08T07:01:24.422Z,21.47
2022-08-08T07:04:40.565Z,21.55
2022-08-08T07:06:54.967Z,21.58
2022-08-08T07:09:45.811Z,21.70
2022-08-08T07:12:30.642Z,21.81
2022-08-08T07:15:32.638Z,22.04
2022-08-08T07:18:34.430Z,22.18
2022-08-08T07:20:50.774Z,22.32
2022-08-08T07:24:01.005Z,22.32
2022-08-08T07:26:35.774Z,22.34
2022-08-08T07:29:08.342Z,22.33
2022-08-08T07:31:42.983Z,22.37
2022-08-08T07:34:19.944Z,22.38
2022-08-08T07:36:51.017Z,22.31
2022-08-08T07:39:29.679Z,22.19
2022-08-08T07:42:18.710Z,22.35
2022-08-08T07:44:47.943Z,22.38
2022-08-08T07:47:29.176Z,22.43
2022-08-08T07:50:07.165Z,22.39
2022-08-08T07:52:36.209Z,22.29
2022-08-08T07:55:22.283Z,22.15
2022-08-08T07:58:09.214Z,21.98
2022-08-08T08:00:44.390Z,21.92
2022-08-08T08:03:23.927Z,21.91
2022-08-08T08:05:58.893Z,22.00
2022-08-08T08:08:39.944Z,22.07
2022-08-08T08:11:21.465Z,22.21
2022-08-08T08:14:15.151Z,22.34
2022-08-08T08:16:50.506Z,22.39
2022-08-08T08:19:19.935Z,22.44
2022-08-08T08:21:57.866Z,22.59
2022-08-08T08:24:46.493Z,22.51
2022-08-08T08:27:17.727Z,22.52
2022-08-08T08:29:52.041Z,22.63
2022-08-08T08:32:32.115Z,22.54
2022-08-08T08:35:09.403Z,22.61
2022-08-08T08:37:59.415Z,22.59
2022-08-08T08:40:27.312Z,22.76
2022-08-08T08:42:56.043Z,22.64
2022-08-08T08:45:26.333Z,22.65
2022-08-08T08:48:01.141Z,22.65
2022-08-08T08:50:35.493Z,22.63
2022-08-08T08:53:28.094Z,22.83
2022-08-08T08:56:07.009Z,22.80
2022-08-08T08:58:43.403Z,22.83
2022-08-08T09:01:23.814Z,22.66
2022-08-08T09:03:55.528Z,22.72
2022-08-08T09:06:33.435Z,22.89
2022-08-08T09:09:26.111Z,23.01
2022-08-08T09:12:09.677Z,22.89
2022-08-08T09:14:44.991Z,22.81
2022-08-08T09:17:18.706Z,22.85
2022-08-08T09:21:56.666Z,22.87
2022-08-08T09:22:35.818Z,22.98
2022-08-08T09:25:05.383Z,23.38
2022-08-08T09:27:56.670Z,23.78
2022-08-08T09:30:26.837Z,23.88
2022-08-08T09:33:12.001Z,24.04
2022-08-08T09:35:48.858Z,24.07
2022-08-08T09:38:53.672Z,23.98
2022-08-08T09:41:33.571Z,24.25
2022-08-08T09:44:18.892Z,24.34
2022-08-08T09:47:05.341Z,24.68
2022-08-08T09:49:50.009Z,24.62
2022-08-08T09:52:56.115Z,24.95
2022-08-08T09:55:17.045Z,24.85
2022-08-08T09:57:55.764Z,24.69
2022-08-08T10:00:52.919Z,24.96
2022-08-08T10:03:15.524Z,25.14
2022-08-08T10:05:47.231Z,25.05
2022-08-08T10:08:18.664Z,25.31
2022-08-08T10:10:50.910Z,25.43
2022-08-08T10:13:35.932Z,25.54
2022-08-08T10:16:05.849Z,25.36
2022-08-08T10:18:35.307Z,25.21
2022-08-08T10:21:24.868Z,24.90
2022-08-08T10:24:03.078Z,25.05
2022-08-08T10:26:57.091Z,24.82
2022-08-08T10:29:58.612Z,24.87
2022-08-08T10:32:39.093Z,24.79
2022-08-08T10:36:06.868Z,24.82
2022-08-08T10:38:05.730Z,24.67
2022-08-08T10:40:38.236Z,25.00
2022-08-08T10:43:06.502Z,25.48
2022-08-08T10:45:56.774Z,25.63
2022-08-08T10:48:58.596Z,25.77
2022-08-08T10:51:30.758Z,26.18
2022-08-08T10:54:00.209Z,26.57
2022-08-08T10:56:36.966Z,26.36
2022-08-08T10:59:10.353Z,26.41
2022-08-08T11:01:46.423Z,25.89
2022-08-08T11:04:16.837Z,25.35
2022-08-08T11:06:47.406Z,25.32
2022-08-08T11:09:19.758Z,25.32
2022-08-08T11:12:05.730Z,25.20
2022-08-08T11:15:02.423Z,25.22
2022-08-08T11:17:58.148Z,25.25
2022-08-08T11:20:28.161Z,25.50
2022-08-08T11:22:59.511Z,25.53
2022-08-08T11:25:52.261Z,25.69
2022-08-08T11:28:29.495Z,25.79
2022-08-08T11:31:00.389Z,25.80
2022-08-08T11:33:35.345Z,25.79
2022-08-08T11:36:15.566Z,25.86
2022-08-08T11:38:54.575Z,25.62
2022-08-08T11:41:27.968Z,25.45
2022-08-08T11:43:59.744Z,25.43
2022-08-08T11:46:31.366Z,25.30
2022-08-08T11:49:01.647Z,25.30
2022-08-08T11:51:39.138Z,25.15
2022-08-08T11:54:31.143Z,24.94
2022-08-08T11:57:27.694Z,24.33
2022-08-08T12:00:00.747Z,24.15
2022-08-08T12:02:48.951Z,24.33
2022-08-08T12:05:18.570Z,24.17
2022-08-08T12:07:53.483Z,24.07
2022-08-08T12:10:22.779Z,24.13
2022-08-08T12:12:51.767Z,24.34
2022-08-08T12:15:28.964Z,24.52
2022-08-08T12:17:55.730Z,24.65
2022-08-08T12:20:23.182Z,24.84
2022-08-08T12:22:52.721Z,25.00
2022-08-08T12:25:24.727Z,25.20
2022-08-08T12:28:15.644Z,25.05
2022-08-08T12:30:47.799Z,25.12
2022-08-08T12:33:37.740Z,24.86
2022-08-08T12:36:14.512Z,24.76
2022-08-08T12:38:55.534Z,24.64
2022-08-08T12:41:33.578Z,24.51
2022-08-08T12:44:10.547Z,24.29
2022-08-08T12:46:37.318Z,24.21
2022-08-08T12:49:25.384Z,24.14
2022-08-08T12:51:58.757Z,24.04
2022-08-08T12:54:40.986Z,23.92
2022-08-08T12:57:17.606Z,23.84
2022-08-08T13:00:04.443Z,23.83
2022-08-08T13:02:42.140Z,23.87
2022-08-08T13:05:26.285Z,24.07
2022-08-08T13:08:18.945Z,24.10
2022-08-08T13:11:04.486Z,24.26
2022-08-08T13:13:37.153Z,24.23
2022-08-08T13:16:20.694Z,24.09
2022-08-08T13:18:56.939Z,24.10
2022-08-08T13:21:27.004Z,24.19
2022-08-08T13:24:18.572Z,24.32
2022-08-08T13:27:11.943Z,24.35
2022-08-08T13:29:55.042Z,24.57
2022-08-08T13:32:25.360Z,24.44
2022-08-08T13:34:57.752Z,24.43
2022-08-08T13:37:51.782Z,24.32
2022-08-08T13:40:17.888Z,24.30
2022-08-08T13:42:54.815Z,24.35
2022-08-08T13:45:22.962Z,24.42
2022-08-08T13:48:01.641Z,24.43
2022-08-08T13:50:50.410Z,24.43
2022-08-08T13:53:33.823Z,24.52
2022-08-08T13:56:10.814Z,24.49
2022-08-08T13:58:56.056Z,24.45
2022-08-08T14:01:32.809Z,24.47
2022-08-08T14:04:21.592Z,24.40
2022-08-08T14:06:48.841Z,24.35
2022-08-08T14:09:25.568Z,24.32
2022-08-08T14:12:00.392Z,24.21
2022-08-08T14:14:41.898Z,24.17
2022-08-08T14:17:22.091Z,24.23
2022-08-08T14:19:57.653Z,24.09
2022-08-08T14:22:37.941Z,24.07
2022-08-08T14:25:15.482Z,24.01
2022-08-08T14:27:59.623Z,23.89
2022-08-08T14:30:34.122Z,23.72
2022-08-08T14:33:00.870Z,23.73
2022-08-08T14:35:36.186Z,23.71
2022-08-08T14:38:34.453Z,23.62
2022-08-08T14:40:58.802Z,23.65
2022-08-08T14:44:02.557Z,23.58
2022-08-08T14:46:17.046Z,23.58
2022-08-08T14:48:57.114Z,23.56
2022-08-08T14:51:47.222Z,23.46
2022-08-08T14:54:13.930Z,23.44
2022-08-08T14:56:42.980Z,23.41
2022-08-08T14:59:22.150Z,23.44
2022-08-08T15:01:58.789Z,23.41
2022-08-08T15:04:26.456Z,23.44
2022-08-08T15:06:53.512Z,23.48
2022-08-08T15:09:21.822Z,23.55
2022-08-08T15:11:53.006Z,23.64
2022-08-08T15:14:26.577Z,23.66
2022-08-08T15:16:55.002Z,23.71
2022-08-08T15:19:23.865Z,23.77
2022-08-08T15:21:54.984Z,23.70
2022-08-08T15:24:21.638Z,23.65
2022-08-08T15:26:52.712Z,23.66
2022-08-08T15:29:22.533Z,23.61
2022-08-08T15:32:19.183Z,23.59
2022-08-08T15:34:38.787Z,23.29
2022-08-08T15:37:06.577Z,23.10
2022-08-08T15:39:38.184Z,23.06
2022-08-08T15:42:10.610Z,23.19
2022-08-08T15:44:44.414Z,23.16
2022-08-08T15:47:16.315Z,23.16
2022-08-08T15:49:47.609Z,23.14
2022-08-08T15:52:17.767Z,23.06
2022-08-08T15:54:46.187Z,23.09
2022-08-08T15:57:15.666Z,23.07
2022-08-08T16:00:06.045Z,23.09
2022-08-08T16:02:50.831Z,23.04
2022-08-08T16:05:23.408Z,23.12
2022-08-08T16:07:54.001Z,23.16
2022-08-08T16:13:11.832Z,23.11
2022-08-08T16:13:28.553Z,23.14
2022-08-08T16:15:57.278Z,23.01
2022-08-08T16:18:32.294Z,22.89
2022-08-08T16:21:00.387Z,22.79
2022-08-08T16:23:31.379Z,22.79
2022-08-08T16:26:04.110Z,22.78
2022-08-08T16:28:35.355Z,22.71
2022-08-08T16:31:06.539Z,22.72
2022-08-08T16:33:38.755Z,22.69
2022-08-08T16:36:15.730Z,22.64
2022-08-08T16:38:45.077Z,22.56
2022-08-08T16:41:20.209Z,22.48
2022-08-08T16:43:50.768Z,22.50
2022-08-08T16:46:36.595Z,22.48
2022-08-08T16:49:04.966Z,22.41
2022-08-08T16:55:05.496Z,22.41
2022-08-08T16:55:22.927Z,22.36
2022-08-08T16:57:23.254Z,22.33
2022-08-08T16:59:54.336Z,22.39
2022-08-08T17:02:44.184Z,22.32
2022-08-08T17:05:13.169Z,22.28
2022-08-08T17:07:42.071Z,22.19
2022-08-08T17:10:10.056Z,22.08
2022-08-08T17:12:38.799Z,22.01
2022-08-08T17:15:17.823Z,21.92
2022-08-08T17:18:03.865Z,21.83
2022-08-08T17:20:32.434Z,21.77
2022-08-08T17:23:16.878Z,21.71
2022-08-08T17:25:53.432Z,21.70
2022-08-08T17:28:35.095Z,21.66
2022-08-08T17:31:43.247Z,21.61
2022-08-08T17:34:49.366Z,21.56
2022-08-08T17:36:44.190Z,21.59
2022-08-08T17:40:02.790Z,21.58
2022-08-08T17:42:15.639Z,21.49
2022-08-08T17:44:44.260Z,21.44
2022-08-08T17:47:24.173Z,21.40
2022-08-08T17:50:01.319Z,21.31
2022-08-08T17:52:35.392Z,21.24
2022-08-08T17:56:03.855Z,21.26
2022-08-08T17:57:52.004Z,21.22
2022-08-08T18:00:19.586Z,21.19
2022-08-08T18:02:52.403Z,21.08
2022-08-08T18:05:47.938Z,20.98
2022-08-08T18:08:37.477Z,20.91
2022-08-08T18:11:16.749Z,20.89
2022-08-08T18:13:46.900Z,20.92
2022-08-08T18:16:20.384Z,20.80
2022-08-08T18:18:52.772Z,20.63
2022-08-08T18:21:35.675Z,20.61
2022-08-08T18:24:17.310Z,20.54
2022-08-08T18:26:54.584Z,20.49
2022-08-08T18:29:33.221Z,20.38
2022-08-08T18:32:03.451Z,20.27
2022-08-08T18:34:32.760Z,20.25
2022-08-08T18:37:00.548Z,20.15
2022-08-08T18:39:28.979Z,20.02
2022-08-08T18:41:59.658Z,19.93
2022-08-08T18:44:30.290Z,19.85
2022-08-08T18:47:00.071Z,19.76
2022-08-08T18:49:32.522Z,19.69
2022-08-08T18:52:18.746Z,19.68
2022-08-08T18:55:00.612Z,19.61
2022-08-08T18:57:41.840Z,19.52
2022-08-08T19:00:16.601Z,19.49
2022-08-08T19:02:55.304Z,19.52
2022-08-08T19:05:34.772Z,19.56
2022-08-08T19:08:25.899Z,19.59
2022-08-08T19:11:01.726Z,19.66
2022-08-08T19:13:38.306Z,19.69
2022-08-08T19:16:19.554Z,19.75
2022-08-08T19:18:52.895Z,19.75
2022-08-08T19:21:30.577Z,19.75
2022-08-08T19:23:59.899Z,19.76
2022-08-08T19:26:30.057Z,19.78
2022-08-08T19:28:58.864Z,19.87
2022-08-08T19:31:31.577Z,19.78
2022-08-08T19:34:29.889Z,19.79
2022-08-08T19:36:55.258Z,19.79
2022-08-08T19:39:25.027Z,19.75
2022-08-08T19:41:52.033Z,19.77
2022-08-08T19:44:26.949Z,19.77
2022-08-08T19:47:06.483Z,19.77
2022-08-08T19:49:37.892Z,19.74
2022-08-08T19:52:06.764Z,19.76
2022-08-08T19:54:33.769Z,19.74
2022-08-08T19:57:04.154Z,19.71
2022-08-08T19:59:34.891Z,19.69
2022-08-08T20:02:04.433Z,19.65
2022-08-08T20:04:35.975Z,19.56
2022-08-08T20:08:28.313Z,19.48
2022-08-08T20:09:56.708Z,19.40
2022-08-08T20:12:32.634Z,19.38
2022-08-08T20:15:14.410Z,19.31
2022-08-08T20:17:45.354Z,19.20
2022-08-08T20:20:19.035Z,19.13
2022-08-08T20:22:48.894Z,19.11
2022-08-08T20:25:20.761Z,19.08
2022-08-08T20:27:50.469Z,19.10
2022-08-08T20:30:53.871Z,19.11
2022-08-08T20:33:20.183Z,19.06
2022-08-08T20:35:56.906Z,19.07
2022-08-08T20:38:29.112Z,19.10
2022-08-08T20:40:59.409Z,19.05
2022-08-08T20:43:43.501Z,19.05
2022-08-08T20:46:12.857Z,19.05
2022-08-08T20:48:39.519Z,19.03
2022-08-08T20:51:07.986Z,19.00
2022-08-08T20:53:58.852Z,18.95
2022-08-08T20:56:35.153Z,18.94
2022-08-08T20:59:05.658Z,18.92
2022-08-08T21:02:06.488Z,18.89
2022-08-08T21:04:20.787Z,18.90
2022-08-08T21:06:53.187Z,18.82
2022-08-08T21:09:21.525Z,18.80
2022-08-08T21:11:51.834Z,18.74
2022-08-08T21:14:33.308Z,18.83
2022-08-08T21:17:06.726Z,18.66
2022-08-08T21:19:45.869Z,18.57
2022-08-08T21:22:14.542Z,18.54
2022-08-08T21:24:52.915Z,18.43
2022-08-08T21:27:38.845Z,18.38
2022-08-08T21:30:16.399Z,18.38
2022-08-08T21:32:51.606Z,18.32
2022-08-08T21:36:14.047Z,18.25
2022-08-08T21:38:16.363Z,18.21
2022-08-08T21:40:56.201Z,18.16
2022-08-08T21:43:31.082Z,18.15
2022-08-08T21:48:07.084Z,18.13
2022-08-08T21:48:54.045Z,18.17
2022-08-08T21:54:31.361Z,18.21
2022-08-08T21:54:32.213Z,18.22
2022-08-08T21:56:59.420Z,18.22
2022-08-08T21:59:28.338Z,18.22
2022-08-08T22:02:10.819Z,18.28
2022-08-08T22:04:39.244Z,18.25
2022-08-08T22:07:05.982Z,18.27
2022-08-08T22:09:37.264Z,18.24
2022-08-08T22:12:09.286Z,18.21
2022-08-08T22:14:37.118Z,18.20
2022-08-08T22:17:03.886Z,18.20
2022-08-08T22:20:11.451Z,18.15
2022-08-08T22:22:18.053Z,18.13
2022-08-08T22:24:45.504Z,18.10
2022-08-08T22:27:12.280Z,18.16
2022-08-08T22:30:01.047Z,18.07
2022-08-08T22:32:29.045Z,18.03
2022-08-08T22:34:55.686Z,18.01
2022-08-08T22:37:49.722Z,18.05
2022-08-08T22:40:16.980Z,18.05
2022-08-08T22:42:45.540Z,18.01
2022-08-08T22:45:14.853Z,18.06
2022-08-08T22:47:47.198Z,18.04
2022-08-08T22:50:25.811Z,18.07
2022-08-08T22:53:22.510Z,18.07
2022-08-08T22:55:57.675Z,18.00
2022-08-08T22:58:27.147Z,18.01
2022-08-08T23:00:59.681Z,17.99
2022-08-08T23:03:53.129Z,17.97
2022-08-08T23:06:15.881Z,17.89
2022-08-08T23:08:55.440Z,17.85
2022-08-08T23:11:57.925Z,17.80
2022-08-08T23:14:16.111Z,17.76
2022-08-08T23:16:43.749Z,17.69
2022-08-08T23:19:11.017Z,17.66
2022-08-08T23:21:38.017Z,17.59
2022-08-08T23:24:06.890Z,17.54
2022-08-08T23:26:34.217Z,17.51
2022-08-08T23:29:01.965Z,17.45
2022-08-08T23:31:28.721Z,17.38
2022-08-08T23:34:17.129Z,17.36
2022-08-08T23:36:42.316Z,17.26
2022-08-08T23:39:09.520Z,17.28
2022-08-08T23:41:41.682Z,17.22
2022-08-08T23:44:13.235Z,17.20
2022-08-08T23:49:04.183Z,17.18
2022-08-08T23:49:26.960Z,17.20
2022-08-08T23:52:05.814Z,17.17
2022-08-08T23:54:43.353Z,17.16
2022-08-08T23:57:38.874Z,17.14
